x

Buoy E01 - Central Maine Shelf (44032) Wave Buoy

5:04 - Fri 12th Feb 2016 All times are EST. -5 hours from GMT.

  • Sig Wave height 2.3ft
  • Peak Period 5s
  • Wind
    9mph, 11mph gusts
  • Sea Temp 40°f
  • Air Temp 20°f
  • Sea Pressure 1016.2mb
  • Buoy E01 - Central Maine Shelf
  • Buoy E01 - Central Maine Shelf

More Historic Weather Station data

Upgrade to MSW Pro to gain access to the past 30 days of data for over 8000 Wavebouys and Weather Stations around the globe.

Join Pro

Comparision Forecast

View Surf forecast
   
ven. 02/12 5:04 2.5ft 5s 9 11 mph 1016.2mb 40f 20f
4:04 3ft 11s 13 18 mph 1016.5mb 39f 19f
3:04 3ft 11s 9 13 mph 1016.6mb 40f 17f
2:04 2.5ft 5s 9 13 mph 1016.4mb 41f 17f
1:04 2.5ft 11s 7 11 mph 1017.1mb 41f 15f
12:04 2.5ft 5s 9 16 mph 1017.9mb 41f 14f
11:04 2.5ft 4s 9 16 mph 1018.9mb 41f 12f
10:04 2.5ft 5s 16 20 mph 1019mb 41f 13f
9:04 3ft 4s 20 27 mph 1019.5mb 42f 11f
8:04 3.5ft 5s 20 27 mph 1018.9mb 42f 11f
7:04 3.5ft 5s 18 25 mph 1018.4mb 42f 10f
6:04 4ft 5s 22 29 mph 1017.6mb 41f 10f
5:04 4.5ft 5s 25 31 mph 1016.8mb 41f 10f
4:04 4.5ft 5s 25 29 mph 1015.8mb 41f 10f
3:04 5ft 4s 27 34 mph 1014.4mb 42f 10f
2:04 5ft 4s 29 40 mph 1013.9mb 42f 10f
1:04 5.5ft 5s 29 36 mph 1012.8mb 42f 10f
12:04 5.5ft 4s 27 34 mph 1011.6mb 43f 13f
jeu. 02/11 10:04 5ft 5s 25 34 mph 1009.3mb 42f 18f
9:04 6.5ft 5s 27 31 mph 1008mb 42f 20f
8:04 6ft 5s 29 36 mph 1007.1mb 42f 23f
7:04 4ft 4s 27 34 mph 1005.7mb 42f 26f
6:04 5.5ft 11s 27 36 mph 1004.1mb 41f 27f
5:04 4.5ft 11s 18 22 mph 1003.1mb 42f 28f
4:04 3.5ft 11s 13 20 mph 1002.5mb 43f 29f
3:04 4ft 11s 13 18 mph 1002.2mb 43f 28f
2:04 3.5ft 11s 13 20 mph 1001.7mb 43f 29f
1:04 3ft 11s 9 13 mph 1001.9mb 43f 29f
12:04 3.5ft 11s 7 11 mph 1002.3mb 42f 28f
11:04  -   -  11 13 mph 1002.9mb 42f 27f
10:04  -   -  9 11 mph 1003mb 42f 27f
9:04 2.5ft 5s 11 16 mph 1003.4mb 42f 27f
8:04  -   -  13 20 mph 1002.7mb 41f 27f
7:04 5ft 11s 16 22 mph 1002.2mb 42f 28f
6:04 6ft 11s 20 22 mph 1001.8mb 41f 28f
5:04 6ft 11s 20 27 mph 1001.1mb 41f 29f
4:04 5ft 11s 22 25 mph 1000.8mb 42f 30f
3:04 5ft 11s 20 25 mph 1000.2mb 42f 31f
2:04 4.5ft 11s 13 16 mph 999.8mb 41f 32f
1:04 5ft 11s  -  mph - 42f -
12:04  -   -  18 20 mph 999.3mb 42f 36f
mer. 02/10 11:04  -   -  18 22 mph 999.4mb 42f 37f
10:04  -   -  16 20 mph 999.6mb 42f 37f
9:04 5ft 11s 16 18 mph 999.8mb 42f 36f
8:04 5ft 11s 13 16 mph 1000.1mb 41f 35f
7:04 6ft 11s 9 11 mph 1000.5mb 41f 35f
6:04 5.5ft 11s 7
mph
1000.5mb 42f 34f
5:04 5ft 11s 4 7 mph 1000.2mb 42f 33f
4:04 4.5ft 11s 4 7 mph 999.8mb 41f 32f
3:04 5ft 11s 4 7 mph 999.6mb 42f 32f
2:04 4ft 11s 7 9 mph 999.4mb 42f 31f
1:04  -   -  9 11 mph 999.6mb 42f 31f
12:04 3.5ft 11s 4 7 mph 1000.3mb 42f 32f
11:04 3.5ft 11s 11 13 mph 1001.1mb 42f 32f
10:04 3.5ft 11s 7 9 mph 1001.2mb 42f 33f
9:04 3.5ft 11s 9 11 mph 1001.8mb 42f 32f
8:04 3.5ft 11s 9 11 mph 1002mb 42f 30f
7:04 3ft 8s 7 9 mph 1002mb 42f 28f
6:04 4.5ft 11s 2 4 mph 1002.1mb 42f 26f
5:04 4ft 11s 4 7 mph 1001.5mb 42f 26f
4:04 4.5ft 11s 4 9 mph 1001.3mb 42f 25f
3:04 6ft 11s 7 11 mph 1001.5mb 42f 24f
2:04 5ft 11s 9 11 mph 1001.5mb 42f 24f
1:04  -   -  11 16 mph 1001mb 42f 24f
12:04 6ft 11s 9 16 mph 1001.1mb 42f 23f
mar. 02/09 11:04 5.5ft 11s 9 13 mph 1001.3mb 42f 24f
10:04  -   -  9 13 mph 1001.5mb 42f 24f
9:04  -   -  11 16 mph 1001.1mb 42f 25f
8:04 5ft 8s 13 18 mph 1001.4mb 42f 25f
7:04  -   -  16 18 mph 1001.9mb 42f 26f
6:04 9ft 11s 11 13 mph 1001.8mb 42f 26f
5:04 7ft 11s 9 13 mph 1001.7mb 42f 26f
4:04 8ft 11s 9 11 mph 1001.3mb 42f 26f
3:04 10ft 16s 13 18 mph 1000.7mb 42f 26f
2:04 11.5ft 16s 11 18 mph 1000.9mb 42f 25f
1:04 13ft 11s 11 16 mph 1002.4mb 42f 24f
12:04 12.5ft 16s 13 18 mph 1002.7mb 42f 24f
11:04 12ft 16s 11 16 mph 1004.4mb 42f 23f
10:04 13.5ft 16s 11 16 mph 1005.1mb 42f 23f
9:04  -   -  11 16 mph 1005.4mb 42f 22f
8:04 15ft 16s 18 25 mph 1004mb 42f 22f
7:04  -   -  13 18 mph 1005.7mb 42f 22f
6:04  -   -  18 22 mph 1005.6mb 42f 22f
5:04  -   -  20 31 mph 1005.4mb 42f 22f
4:04  -   -  22 27 mph 1005.3mb 42f 22f
3:04  -   -  25 31 mph 1005.1mb 42f 22f
2:04 12ft 11s 29 40 mph 1006mb 42f 22f
1:04 10ft 11s 27 40 mph 1006.2mb 42f 23f
12:04 9.5ft 11s 31 43 mph 1006mb 42f 23f